Terminal Aerodrome Forecast
Issued by NWS King Salmon, AK

Home | Current Version | Previous Version | Text Only | Print | Product List | Glossary On
Versions: 1 2 3 4 5 6 7 8 9 10 11 12 13 14 15 16
000
FTAK31 PANC 272329
TAFAKN
TAF
PAKN 272329Z 2800/2824 14011KT P6SM VCSH SCT040 BKN120
     FM280400 05007KT P6SM VCSH BKN035 OVC060
     FM281200 03009KT P6SM -SHRA BKN025 OVC040=

USA.gov is the U.S. government's official web portal to all federal, state and local government web resources and services.